createdAt,value
2017-09-10T00:01:34.602Z,13.80
2017-09-10T00:04:02.718Z,13.90
2017-09-10T00:06:31.279Z,13.50
2017-09-10T00:08:59.359Z,13.30
2017-09-10T00:11:27.621Z,13.20
2017-09-10T00:13:56.085Z,13.10
2017-09-10T00:16:24.189Z,13.00
2017-09-10T00:18:52.299Z,12.90
2017-09-10T00:21:20.423Z,12.80
2017-09-10T00:23:48.599Z,12.80
2017-09-10T00:26:16.774Z,12.80
2017-09-10T00:28:44.947Z,12.80
2017-09-10T00:31:13.531Z,12.80
2017-09-10T00:33:41.711Z,12.80
2017-09-10T00:36:09.874Z,12.80
2017-09-10T00:38:38.055Z,12.70
2017-09-10T00:41:06.568Z,12.70
2017-09-10T00:43:35.427Z,12.60
2017-09-10T00:46:03.603Z,12.50
2017-09-10T00:48:32.471Z,12.30
2017-09-10T00:51:00.547Z,12.30
2017-09-10T00:53:30.276Z,12.40
2017-09-10T00:55:58.360Z,12.50
2017-09-10T00:58:26.449Z,12.50
2017-09-10T01:00:55.306Z,12.40
2017-09-10T01:03:23.483Z,12.30
2017-09-10T01:05:51.567Z,12.20
2017-09-10T01:08:19.731Z,12.30
2017-09-10T01:10:48.206Z,12.30
2017-09-10T01:13:16.288Z,12.40
2017-09-10T01:15:44.411Z,12.40
2017-09-10T01:18:12.534Z,12.40
2017-09-10T01:20:40.607Z,12.30
2017-09-10T01:23:08.778Z,12.20
2017-09-10T01:25:36.875Z,12.30
2017-09-10T01:28:05.844Z,12.20
2017-09-10T01:30:34.015Z,12.10
2017-09-10T01:33:02.190Z,12.20
2017-09-10T01:35:30.364Z,12.20
2017-09-10T01:37:58.530Z,12.20
2017-09-10T01:40:26.706Z,12.20
2017-09-10T01:42:54.782Z,12.20
2017-09-10T01:45:22.950Z,12.20
2017-09-10T01:47:51.127Z,12.10
2017-09-10T01:50:19.202Z,12.10
2017-09-10T01:52:47.374Z,12.10
2017-09-10T01:55:15.553Z,12.10
2017-09-10T01:57:43.626Z,12.10
2017-09-10T02:00:11.790Z,12.10
2017-09-10T02:02:39.965Z,12.20
2017-09-10T02:05:08.049Z,12.20
2017-09-10T02:07:36.215Z,12.10
2017-09-10T02:10:04.390Z,12.10
2017-09-10T02:12:32.488Z,12.10
2017-09-10T02:15:00.635Z,12.00
2017-09-10T02:17:29.499Z,12.00
2017-09-10T02:19:57.605Z,11.90
2017-09-10T02:22:25.679Z,11.90
2017-09-10T02:24:53.753Z,11.80
2017-09-10T02:27:21.918Z,11.80
2017-09-10T02:29:50.090Z,11.80
2017-09-10T02:32:18.166Z,11.80
2017-09-10T02:34:46.747Z,11.70
2017-09-10T02:37:15.656Z,11.70
2017-09-10T02:39:43.824Z,11.70
2017-09-10T02:42:11.903Z,11.70
2017-09-10T02:44:40.059Z,11.70
2017-09-10T02:47:08.233Z,11.70
2017-09-10T02:49:36.406Z,11.70
2017-09-10T02:52:04.503Z,11.70
2017-09-10T02:54:32.583Z,11.70
2017-09-10T02:57:01.542Z,11.80
2017-09-10T02:59:30.013Z,11.80
2017-09-10T03:01:58.093Z,11.70
2017-09-10T03:04:26.276Z,11.70
2017-09-10T03:06:54.351Z,11.70
2017-09-10T03:09:22.520Z,11.70
2017-09-10T03:11:50.622Z,11.60
2017-09-10T03:14:19.588Z,11.60
2017-09-10T03:16:47.758Z,11.60
2017-09-10T03:19:15.930Z,11.60
2017-09-10T03:21:44.518Z,11.60
2017-09-10T03:24:12.614Z,11.60
2017-09-10T03:26:41.578Z,11.70
2017-09-10T03:29:09.754Z,11.80
2017-09-10T03:31:38.651Z,11.90
2017-09-10T03:34:06.817Z,12.00
2017-09-10T03:36:34.922Z,12.10
2017-09-10T03:39:03.797Z,12.20
2017-09-10T03:41:31.962Z,12.20
2017-09-10T03:44:00.130Z,12.10
2017-09-10T03:46:28.302Z,12.00
2017-09-10T03:48:56.482Z,12.00
2017-09-10T03:51:24.971Z,12.00
2017-09-10T03:53:53.133Z,12.00
2017-09-10T03:56:21.307Z,11.90
2017-09-10T03:58:49.386Z,11.90
2017-09-10T04:01:17.467Z,11.90
2017-09-10T04:03:45.626Z,11.80
2017-09-10T04:06:14.519Z,11.80
2017-09-10T04:08:42.615Z,11.80
2017-09-10T04:11:10.762Z,11.70
2017-09-10T04:13:38.843Z,11.70
2017-09-10T04:16:06.918Z,11.80
2017-09-10T04:18:35.082Z,11.80
2017-09-10T04:21:03.255Z,11.70
2017-09-10T04:23:31.426Z,11.70
2017-09-10T04:25:59.602Z,11.70
2017-09-10T04:28:27.780Z,11.60
2017-09-10T04:30:56.622Z,11.60
2017-09-10T04:33:24.742Z,11.70
2017-09-10T04:35:52.838Z,11.80
2017-09-10T04:38:20.987Z,11.80
2017-09-10T04:40:49.162Z,11.90
2017-09-10T04:43:17.266Z,11.90
2017-09-10T04:45:46.127Z,12.00
2017-09-10T04:48:14.202Z,12.10
2017-09-10T04:50:42.370Z,12.10
2017-09-10T04:53:10.442Z,12.20
2017-09-10T04:55:38.618Z,12.20
2017-09-10T04:58:06.790Z,12.20
2017-09-10T05:00:34.870Z,12.20
2017-09-10T05:03:02.942Z,12.30
2017-09-10T05:05:31.110Z,12.20
2017-09-10T05:07:59.582Z,12.20
2017-09-10T05:10:27.770Z,12.20
2017-09-10T05:12:56.605Z,12.30
2017-09-10T05:15:25.102Z,12.30
2017-09-10T05:17:53.211Z,12.20
2017-09-10T05:20:21.306Z,12.00
2017-09-10T05:22:49.455Z,11.90
2017-09-10T05:25:17.636Z,11.90
2017-09-10T05:27:45.726Z,11.80
2017-09-10T05:30:14.282Z,11.70
2017-09-10T05:32:42.462Z,11.60
2017-09-10T05:35:11.350Z,11.60
2017-09-10T05:37:39.447Z,11.50
2017-09-10T05:40:07.523Z,11.60
2017-09-10T05:42:36.402Z,11.60
2017-09-10T05:45:04.970Z,11.60
2017-09-10T05:47:33.143Z,11.70
2017-09-10T05:50:01.631Z,11.70
2017-09-10T05:52:29.726Z,11.70
2017-09-10T05:54:58.222Z,11.70
2017-09-10T05:57:27.122Z,11.70
2017-09-10T05:59:56.062Z,11.90
2017-09-10T06:02:24.238Z,12.00
2017-09-10T06:04:52.410Z,12.10
2017-09-10T06:07:20.894Z,12.20
2017-09-10T06:09:49.070Z,12.20
2017-09-10T06:12:17.245Z,12.30
2017-09-10T06:14:45.347Z,12.20
2017-09-10T06:17:13.898Z,12.20
2017-09-10T06:19:41.978Z,12.30
2017-09-10T06:22:10.142Z,12.30
2017-09-10T06:24:38.328Z,12.30
2017-09-10T06:27:06.495Z,12.30
2017-09-10T06:29:34.666Z,12.40
2017-09-10T06:32:02.844Z,12.50
2017-09-10T06:34:30.917Z,12.50
2017-09-10T06:36:59.398Z,12.30
2017-09-10T06:39:27.584Z,12.20
2017-09-10T06:41:55.647Z,12.30
2017-09-10T06:44:23.742Z,12.50
2017-09-10T06:46:52.583Z,12.70
2017-09-10T06:49:20.778Z,12.80
2017-09-10T06:51:48.950Z,12.80
2017-09-10T06:54:17.130Z,12.80
2017-09-10T06:56:46.018Z,12.90
2017-09-10T06:59:14.190Z,12.90
2017-09-10T07:01:42.287Z,13.00
2017-09-10T07:04:10.438Z,13.00
2017-09-10T07:06:39.318Z,13.30
2017-09-10T07:09:07.391Z,13.30
2017-09-10T07:11:35.462Z,13.20
2017-09-10T07:14:03.554Z,13.30
2017-09-10T07:16:32.401Z,13.40
2017-09-10T07:19:00.511Z,13.60
2017-09-10T07:21:28.982Z,13.70
2017-09-10T07:23:57.474Z,13.80
2017-09-10T07:26:26.451Z,13.70
2017-09-10T07:28:55.358Z,13.70
2017-09-10T07:31:23.531Z,13.60
2017-09-10T07:33:52.394Z,13.60
2017-09-10T07:36:20.905Z,13.60
2017-09-10T07:38:49.502Z,13.70
2017-09-10T07:41:18.383Z,13.70
2017-09-10T07:43:47.298Z,13.70
2017-09-10T07:46:16.174Z,14.00
2017-09-10T07:48:44.252Z,14.10
2017-09-10T07:51:12.392Z,14.40
2017-09-10T07:53:41.210Z,14.50
2017-09-10T07:56:09.331Z,14.80
2017-09-10T07:58:37.406Z,15.00
2017-09-10T08:01:06.328Z,15.10
2017-09-10T08:03:34.429Z,15.20
2017-09-10T08:06:02.906Z,15.30
2017-09-10T08:08:31.058Z,15.30
2017-09-10T08:10:59.939Z,15.40
2017-09-10T08:13:28.015Z,15.60
2017-09-10T08:15:56.875Z,15.50
2017-09-10T08:18:24.950Z,15.30
2017-09-10T08:20:53.054Z,15.20
2017-09-10T08:23:21.134Z,15.10
2017-09-10T08:25:49.974Z,14.90
2017-09-10T08:28:18.470Z,14.80
2017-09-10T08:30:46.565Z,14.80
2017-09-10T08:33:14.634Z,14.60
2017-09-10T08:35:42.818Z,14.40
2017-09-10T08:38:11.291Z,14.50
2017-09-10T08:40:40.126Z,14.40
2017-09-10T08:43:08.262Z,14.40
2017-09-10T08:45:36.442Z,14.50
2017-09-10T08:48:04.619Z,14.60
2017-09-10T08:50:33.477Z,14.90
2017-09-10T08:53:01.675Z,15.20
2017-09-10T08:55:29.749Z,15.50
2017-09-10T08:57:57.827Z,15.70
2017-09-10T09:00:25.922Z,15.80
2017-09-10T09:02:54.782Z,16.00
2017-09-10T09:05:22.958Z,16.00
2017-09-10T09:07:51.430Z,16.10
2017-09-10T09:10:19.615Z,16.10
2017-09-10T09:12:47.718Z,16.10
2017-09-10T09:15:16.562Z,16.10
2017-09-10T09:17:45.060Z,16.40
2017-09-10T09:20:13.662Z,16.40
2017-09-10T09:22:42.227Z,16.50
2017-09-10T09:25:10.403Z,17.00
2017-09-10T09:27:38.494Z,17.50
2017-09-10T09:30:06.590Z,17.80
2017-09-10T09:32:35.446Z,17.70
2017-09-10T09:35:03.526Z,17.70
2017-09-10T09:37:32.502Z,17.80
2017-09-10T09:40:00.974Z,17.70
2017-09-10T09:42:29.462Z,17.50
2017-09-10T09:44:57.562Z,17.50
2017-09-10T09:47:26.053Z,17.30
2017-09-10T09:49:54.891Z,17.60
2017-09-10T09:52:23.011Z,18.00
2017-09-10T09:54:51.571Z,18.10
2017-09-10T09:57:19.638Z,18.00
2017-09-10T09:59:47.738Z,18.10
2017-09-10T10:02:15.843Z,18.40
2017-09-10T10:04:43.918Z,18.50
2017-09-10T10:07:12.035Z,19.40
2017-09-10T10:09:40.112Z,19.20
2017-09-10T10:12:08.587Z,19.00
2017-09-10T10:14:36.683Z,19.20
2017-09-10T10:17:05.546Z,18.90
2017-09-10T10:19:33.730Z,18.90
2017-09-10T10:22:01.802Z,18.90
2017-09-10T10:24:29.886Z,19.10
2017-09-10T10:26:58.043Z,19.00
2017-09-10T10:29:26.226Z,20.00
2017-09-10T10:31:54.322Z,21.00
2017-09-10T10:34:23.274Z,20.40
2017-09-10T10:36:51.369Z,19.60
2017-09-10T10:39:19.518Z,19.80
2017-09-10T10:41:47.690Z,20.30
2017-09-10T10:44:15.767Z,20.70
2017-09-10T10:46:43.839Z,21.20
2017-09-10T10:49:12.010Z,20.30
2017-09-10T10:51:40.086Z,19.70
2017-09-10T10:54:08.158Z,19.70
2017-09-10T10:56:36.335Z,19.80
2017-09-10T10:59:04.406Z,19.60
2017-09-10T11:01:32.578Z,19.60
2017-09-10T11:04:00.754Z,19.30
2017-09-10T11:06:28.827Z,19.50
2017-09-10T11:08:56.994Z,19.80
2017-09-10T11:11:25.174Z,19.50
2017-09-10T11:13:53.346Z,19.50
2017-09-10T11:16:22.186Z,19.40
2017-09-10T11:18:50.286Z,19.10
2017-09-10T11:21:19.129Z,18.80
2017-09-10T11:23:47.966Z,18.30
2017-09-10T11:26:16.070Z,18.10
2017-09-10T11:28:44.147Z,18.00
2017-09-10T11:31:12.227Z,18.10
2017-09-10T11:33:40.317Z,17.90
2017-09-10T11:36:09.158Z,17.80
2017-09-10T11:38:37.266Z,17.80
2017-09-10T11:41:05.338Z,17.90
2017-09-10T11:43:34.185Z,18.10
2017-09-10T11:46:02.283Z,18.40
2017-09-10T11:48:30.451Z,18.50
2017-09-10T11:50:58.559Z,18.50
2017-09-10T11:53:27.415Z,18.70
2017-09-10T11:55:55.582Z,18.90
2017-09-10T11:58:23.759Z,19.00
2017-09-10T12:00:51.840Z,19.30
2017-09-10T12:03:19.919Z,19.30
2017-09-10T12:05:48.018Z,19.00
2017-09-10T12:08:16.856Z,18.90
2017-09-10T12:10:44.951Z,18.50
2017-09-10T12:13:13.046Z,18.40
2017-09-10T12:15:41.547Z,18.30
2017-09-10T12:18:10.416Z,18.30
2017-09-10T12:20:38.501Z,18.30
2017-09-10T12:23:07.362Z,18.40
2017-09-10T12:25:35.857Z,19.20
2017-09-10T12:28:03.951Z,19.20
2017-09-10T12:30:32.047Z,19.50
2017-09-10T12:33:00.123Z,21.50
2017-09-10T12:35:28.978Z,22.80
2017-09-10T12:37:57.822Z,23.60
2017-09-10T12:40:26.014Z,24.10
2017-09-10T12:42:54.448Z,24.50
2017-09-10T12:45:22.554Z,24.40
2017-09-10T12:47:51.121Z,24.80
2017-09-10T12:50:19.550Z,26.00
2017-09-10T12:52:48.410Z,26.30
2017-09-10T12:55:16.487Z,26.40
2017-09-10T12:57:44.583Z,25.90
2017-09-10T13:00:13.054Z,23.70
2017-09-10T13:02:41.546Z,24.70
2017-09-10T13:05:09.672Z,25.20
2017-09-10T13:07:37.726Z,25.40
2017-09-10T13:10:05.802Z,25.00
2017-09-10T13:12:33.898Z,25.20
2017-09-10T13:15:01.991Z,24.60
2017-09-10T13:17:30.086Z,23.20
2017-09-10T13:19:58.934Z,22.60
2017-09-10T13:22:27.774Z,23.80
2017-09-10T13:24:56.638Z,25.10
2017-09-10T13:27:25.113Z,25.40
2017-09-10T13:29:53.250Z,24.90
2017-09-10T13:32:21.330Z,24.30
2017-09-10T13:34:49.406Z,25.50
2017-09-10T13:37:17.511Z,26.70
2017-09-10T13:39:45.592Z,27.40
2017-09-10T13:42:14.436Z,27.90
2017-09-10T13:44:42.538Z,27.90
2017-09-10T13:47:10.615Z,28.50
2017-09-10T13:49:38.689Z,27.60
2017-09-10T13:52:07.223Z,27.70
2017-09-10T13:54:35.707Z,28.40
2017-09-10T13:57:03.771Z,27.60
2017-09-10T13:59:31.863Z,27.90
2017-09-10T14:01:59.958Z,27.90
2017-09-10T14:04:28.030Z,27.20
2017-09-10T14:06:56.538Z,27.10
2017-09-10T14:09:25.370Z,27.10
2017-09-10T14:11:53.447Z,27.50
2017-09-10T14:14:21.544Z,28.10
2017-09-10T14:16:50.011Z,27.50
2017-09-10T14:19:18.511Z,25.50
2017-09-10T14:21:46.585Z,25.00
2017-09-10T14:24:14.662Z,25.50
2017-09-10T14:26:42.778Z,25.10
2017-09-10T14:29:10.870Z,24.50
2017-09-10T14:31:39.419Z,25.20
2017-09-10T14:34:08.251Z,26.10
2017-09-10T14:36:36.326Z,25.20
2017-09-10T14:39:04.422Z,23.70
2017-09-10T14:41:32.566Z,22.20
2017-09-10T14:44:01.402Z,22.30
2017-09-10T14:46:30.244Z,23.60
2017-09-10T14:48:58.314Z,24.40
2017-09-10T14:51:27.183Z,25.50
2017-09-10T14:53:55.280Z,25.50
2017-09-10T14:56:23.335Z,25.40
2017-09-10T14:58:51.831Z,25.50
2017-09-10T15:01:20.297Z,25.70
2017-09-10T15:03:48.374Z,25.70
2017-09-10T15:06:16.480Z,25.80
2017-09-10T15:08:45.044Z,25.90
2017-09-10T15:11:13.850Z,25.90
2017-09-10T15:13:41.940Z,25.90
2017-09-10T15:16:11.353Z,26.10
2017-09-10T15:18:40.218Z,26.20
2017-09-10T15:21:09.059Z,26.70
2017-09-10T15:23:37.159Z,26.70
2017-09-10T15:26:05.239Z,26.00
2017-09-10T15:28:33.346Z,25.40
2017-09-10T15:31:01.422Z,26.10
2017-09-10T15:33:30.263Z,26.70
2017-09-10T15:35:58.408Z,25.80
2017-09-10T15:38:27.227Z,26.10
2017-09-10T15:40:55.730Z,26.40
2017-09-10T15:43:24.571Z,26.50
2017-09-10T15:45:53.155Z,25.60
2017-09-10T15:48:21.255Z,25.00
2017-09-10T15:50:50.147Z,24.40
2017-09-10T15:53:19.590Z,24.40
2017-09-10T15:55:47.794Z,23.90
2017-09-10T15:58:15.879Z,23.50
2017-09-10T16:00:44.382Z,24.00
2017-09-10T16:03:12.455Z,24.50
2017-09-10T16:05:40.536Z,24.90
2017-09-10T16:08:08.655Z,24.70
2017-09-10T16:10:36.730Z,24.40
2017-09-10T16:13:05.582Z,24.10
2017-09-10T16:15:34.082Z,23.20
2017-09-10T16:18:02.551Z,22.90
2017-09-10T16:20:30.646Z,22.60
2017-09-10T16:22:59.489Z,22.40
2017-09-10T16:25:28.359Z,22.30
2017-09-10T16:27:58.823Z,21.90
2017-09-10T16:30:27.316Z,21.10
2017-09-10T16:32:56.159Z,20.70
2017-09-10T16:35:25.066Z,20.40
2017-09-10T16:37:53.175Z,20.10
2017-09-10T16:40:21.262Z,20.00
2017-09-10T16:42:49.351Z,19.80
2017-09-10T16:45:18.203Z,19.70
2017-09-10T16:47:47.064Z,19.40
2017-09-10T16:50:15.136Z,19.00
2017-09-10T16:52:43.637Z,18.70
2017-09-10T16:55:11.730Z,18.40
2017-09-10T16:57:39.803Z,18.20
2017-09-10T17:00:07.938Z,18.10
2017-09-10T17:02:36.009Z,17.90
2017-09-10T17:05:04.082Z,17.80
2017-09-10T17:07:32.183Z,17.80
2017-09-10T17:10:00.271Z,17.70
2017-09-10T17:12:29.118Z,17.60
2017-09-10T17:14:57.978Z,17.50
2017-09-10T17:17:26.055Z,17.40
2017-09-10T17:19:54.919Z,17.30
2017-09-10T17:22:23.760Z,17.20
2017-09-10T17:24:51.857Z,17.10
2017-09-10T17:27:19.951Z,17.10
2017-09-10T17:29:48.421Z,17.00
2017-09-10T17:32:16.556Z,16.90
2017-09-10T17:34:45.361Z,16.80
2017-09-10T17:37:13.466Z,16.80
2017-09-10T17:39:42.308Z,16.70
2017-09-10T17:42:10.857Z,16.60
2017-09-10T17:44:38.899Z,16.60
2017-09-10T17:47:06.970Z,16.50
2017-09-10T17:49:35.062Z,16.40
2017-09-10T17:52:03.531Z,16.30
2017-09-10T17:54:31.602Z,16.20
2017-09-10T17:57:00.095Z,16.20
2017-09-10T17:59:28.934Z,16.10
2017-09-10T18:01:57.106Z,16.10
2017-09-10T18:04:25.166Z,15.90
2017-09-10T18:06:53.643Z,15.80
2017-09-10T18:09:21.739Z,15.70
2017-09-10T18:11:49.818Z,15.60
2017-09-10T18:14:18.685Z,15.50
2017-09-10T18:16:47.714Z,15.40
2017-09-10T18:19:16.998Z,15.30
2017-09-10T18:21:45.101Z,15.30
2017-09-10T18:24:13.944Z,15.20
2017-09-10T18:26:42.020Z,15.10
2017-09-10T18:29:10.113Z,15.10
2017-09-10T18:31:38.186Z,15.00
2017-09-10T18:34:06.287Z,14.90
2017-09-10T18:36:35.186Z,14.90
2017-09-10T18:39:03.243Z,14.80
2017-09-10T18:41:32.110Z,14.80
2017-09-10T18:44:00.970Z,14.90
2017-09-10T18:46:29.070Z,14.90
2017-09-10T18:48:57.142Z,14.90
2017-09-10T18:51:25.242Z,14.90
2017-09-10T18:53:54.126Z,14.90
2017-09-10T18:56:22.203Z,14.80
2017-09-10T18:58:50.670Z,14.70
2017-09-10T19:01:19.170Z,14.70
2017-09-10T19:03:48.017Z,14.60
2017-09-10T19:06:16.094Z,14.60
2017-09-10T19:08:44.210Z,14.50
2017-09-10T19:11:13.054Z,14.50
2017-09-10T19:13:41.526Z,14.50
2017-09-10T19:16:09.618Z,14.40
2017-09-10T19:18:37.693Z,14.40
2017-09-10T19:21:06.582Z,14.30
2017-09-10T19:23:35.035Z,14.30
2017-09-10T19:26:03.882Z,14.20
2017-09-10T19:28:32.746Z,14.20
2017-09-10T19:31:01.615Z,14.20
2017-09-10T19:33:30.082Z,14.20
2017-09-10T19:35:58.186Z,14.10
2017-09-10T19:38:26.654Z,14.20
2017-09-10T19:40:54.727Z,14.20
2017-09-10T19:43:22.834Z,14.20
2017-09-10T19:45:51.709Z,14.30
2017-09-10T19:48:19.778Z,14.30
2017-09-10T19:50:47.874Z,14.20
2017-09-10T19:53:15.951Z,14.20
2017-09-10T19:55:44.059Z,14.10
2017-09-10T19:58:12.526Z,14.10
2017-09-10T20:00:40.598Z,14.10
2017-09-10T20:03:09.458Z,14.00
2017-09-10T20:05:38.311Z,14.00
2017-09-10T20:08:06.405Z,14.00
2017-09-10T20:10:34.494Z,14.00
2017-09-10T20:13:02.570Z,14.00
2017-09-10T20:15:30.681Z,14.00
2017-09-10T20:17:59.155Z,14.00
2017-09-10T20:20:27.226Z,14.00
2017-09-10T20:22:55.378Z,14.00
2017-09-10T20:25:23.863Z,13.90
2017-09-10T20:27:52.698Z,13.90
2017-09-10T20:30:20.791Z,13.90
2017-09-10T20:32:49.258Z,13.90
2017-09-10T20:35:18.127Z,13.90
2017-09-10T20:37:46.599Z,13.90
2017-09-10T20:40:14.674Z,13.90
2017-09-10T20:42:42.779Z,13.80
2017-09-10T20:45:10.854Z,13.80
2017-09-10T20:47:38.934Z,13.80
2017-09-10T20:50:07.030Z,13.80
2017-09-10T20:52:35.872Z,13.70
2017-09-10T20:55:03.954Z,13.70
2017-09-10T20:57:32.147Z,13.60
2017-09-10T21:00:00.310Z,13.60
2017-09-10T21:02:28.414Z,13.60
2017-09-10T21:04:57.270Z,13.60
2017-09-10T21:07:25.746Z,13.60
2017-09-10T21:09:53.842Z,13.60
2017-09-10T21:12:21.918Z,13.60
2017-09-10T21:14:50.414Z,13.60
2017-09-10T21:17:19.270Z,13.50
2017-09-10T21:19:47.442Z,13.60
2017-09-10T21:22:15.540Z,13.50
2017-09-10T21:27:14.166Z,13.50
2017-09-10T21:29:43.019Z,13.60
2017-09-10T21:32:11.186Z,13.60
2017-09-10T21:34:39.262Z,13.60
2017-09-10T21:37:07.430Z,13.50
2017-09-10T21:39:35.521Z,13.30
2017-09-10T21:42:03.678Z,13.20
2017-09-10T21:44:31.858Z,13.30
2017-09-10T21:46:59.959Z,13.30
2017-09-10T21:49:28.803Z,13.10
2017-09-10T21:51:56.894Z,13.10
2017-09-10T21:54:25.062Z,13.10
2017-09-10T21:56:53.230Z,13.10
2017-09-10T21:59:21.814Z,13.00
2017-09-10T22:01:49.989Z,13.00
2017-09-10T22:04:18.462Z,13.00
2017-09-10T22:06:46.650Z,13.00
2017-09-10T22:09:14.750Z,12.90
2017-09-10T22:11:43.298Z,12.90
2017-09-10T22:14:11.375Z,12.90
2017-09-10T22:16:39.550Z,12.90
2017-09-10T22:19:07.723Z,13.00
2017-09-10T22:21:35.826Z,12.90
2017-09-10T22:24:04.662Z,13.00
2017-09-10T22:26:33.894Z,13.10
2017-09-10T22:29:01.993Z,13.00
2017-09-10T22:31:30.483Z,12.90
2017-09-10T22:33:59.322Z,12.90
2017-09-10T22:36:27.506Z,12.80
2017-09-10T22:38:55.678Z,12.80
2017-09-10T22:41:23.849Z,12.70
2017-09-10T22:43:52.035Z,12.70
2017-09-10T22:46:20.135Z,12.80
2017-09-10T22:48:48.978Z,12.70
2017-09-10T22:51:17.854Z,12.80
2017-09-10T22:53:46.686Z,12.80
2017-09-10T22:56:14.843Z,12.80
2017-09-10T22:58:43.014Z,12.80
2017-09-10T23:01:11.091Z,12.70
2017-09-10T23:03:39.262Z,12.70
2017-09-10T23:06:07.433Z,12.70
2017-09-10T23:08:35.506Z,12.80
2017-09-10T23:11:03.606Z,12.80
2017-09-10T23:13:31.761Z,12.80
2017-09-10T23:15:59.929Z,12.80
2017-09-10T23:18:29.230Z,12.70
2017-09-10T23:20:57.327Z,12.80
2017-09-10T23:23:25.882Z,12.70
2017-09-10T23:25:54.066Z,12.70
2017-09-10T23:28:22.238Z,12.60
2017-09-10T23:30:50.413Z,12.60
2017-09-10T23:33:18.582Z,12.50
2017-09-10T23:35:46.658Z,12.40
2017-09-10T23:38:14.832Z,12.30
2017-09-10T23:40:43.003Z,12.30
2017-09-10T23:43:11.490Z,12.30
2017-09-10T23:45:39.962Z,12.20
2017-09-10T23:48:08.139Z,12.20
2017-09-10T23:50:36.314Z,12.20
2017-09-10T23:53:04.391Z,12.10
2017-09-10T23:55:32.567Z,12.00
2017-09-10T23:58:00.734Z,12.00
